Time;durP1;ratioP1;P1;durP2;ratioP2;P2;SDS_P1;SDS_P2;PMS_P1;PMS_P2;Temp;Humidity;BMP_temperature;BMP_pressure;BME280_temperature;BME280_humidity;BME280_pressure;Samples;Min_cycle;Max_cycle;Signal;HPM_P1;HPM_P2
2023/03/27 00:01:18;;;;;;;2.65;1.30;;;5.90;99.90;;;;;;6101879;23;20164;-78
2023/03/27 00:03:47;;;;;;;1.67;1.58;;;6.00;99.90;;;;;;6128049;23;20172;-78
2023/03/27 00:06:16;;;;;;;1.92;1.40;;;5.90;99.90;;;;;;6101957;23;20186;-78
2023/03/27 00:08:47;;;;;;;1.92;1.60;;;5.90;99.90;;;;;;6102132;23;20160;-78
2023/03/27 00:11:13;;;;;;;1.95;1.65;;;5.90;99.90;;;;;;6101615;23;20184;-78
2023/03/27 00:13:39;;;;;;;3.58;1.98;;;5.80;99.90;;;;;;6102132;23;20180;-78
2023/03/27 00:16:05;;;;;;;4.88;2.13;;;5.80;99.90;;;;;;6101722;23;20153;-78
2023/03/27 00:18:35;;;;;;;4.25;2.30;;;5.80;99.90;;;;;;6101598;23;20156;-78
2023/03/27 00:21:01;;;;;;;3.50;1.85;;;5.70;99.90;;;;;;6127612;23;20158;-78
2023/03/27 00:23:30;;;;;;;3.70;1.95;;;5.70;99.90;;;;;;6126119;23;20520;-77
2023/03/27 00:25:57;;;;;;;2.00;1.70;;;5.50;99.90;;;;;;6101708;23;20164;-77
2023/03/27 00:28:26;;;;;;;2.05;1.67;;;5.50;99.90;;;;;;6101593;23;20160;-77
2023/03/27 00:30:53;;;;;;;2.70;1.70;;;5.50;99.90;;;;;;6101382;23;20161;-77
2023/03/27 00:33:19;;;;;;;3.85;1.92;;;5.40;99.90;;;;;;6127409;23;20255;-77
2023/03/27 00:35:46;;;;;;;2.75;1.80;;;5.50;99.90;;;;;;6102693;23;20187;-77
2023/03/27 00:38:12;;;;;;;3.83;2.13;;;5.50;99.90;;;;;;6127764;23;20161;-77
2023/03/27 00:40:38;;;;;;;2.55;2.00;;;5.50;99.90;;;;;;6101650;23;20636;-77
2023/03/27 00:43:25;;;;;;;4.87;2.00;;;5.40;99.90;;;;;;6101403;23;20210;-78
2023/03/27 00:45:57;;;;;;;4.53;2.22;;;5.50;99.90;;;;;;6101791;23;20156;-78
2023/03/27 00:48:24;;;;;;;5.32;2.42;;;5.50;99.90;;;;;;6127712;23;20136;-78
2023/03/27 00:50:50;;;;;;;6.22;2.75;;;5.50;99.90;;;;;;6101314;23;20168;-78
2023/03/27 00:53:21;;;;;;;9.38;3.13;;;5.50;99.90;;;;;;6101189;23;20641;-78
2023/03/27 00:55:50;;;;;;;12.52;3.67;;;5.40;99.90;;;;;;6101446;23;20144;-78
2023/03/27 00:58:36;;;;;;;8.83;3.50;;;5.40;99.90;;;;;;6101320;23;20187;-78
2023/03/27 04:31:37;;;;;;;9.40;3.10;;;3.70;99.90;;;;;;6152104;23;20195;31
2023/03/27 04:34:07;;;;;;;8.83;3.10;;;3.70;99.90;;;;;;6117919;23;20232;-94
2023/03/27 06:44:07;;;;;;;4.73;1.70;;;3.80;98.80;;;;;;6175575;23;20271;-93
2023/03/27 06:46:34;;;;;;;5.83;2.10;;;3.90;98.60;;;;;;6175916;23;20215;-93
2023/03/27 06:49:00;;;;;;;5.67;1.90;;;4.00;99.30;;;;;;6171306;23;20163;-93
2023/03/27 06:51:25;;;;;;;5.40;1.77;;;3.90;98.10;;;;;;6148251;23;20176;-93
2023/03/27 06:53:52;;;;;;;5.13;2.20;;;4.00;99.10;;;;;;6143805;23;20155;-93
2023/03/27 06:56:18;;;;;;;8.17;1.60;;;4.00;98.10;;;;;;6142937;23;20175;-89
2023/03/27 06:58:44;;;;;;;5.50;1.37;;;4.10;98.30;;;;;;6151766;23;20159;-93
2023/03/27 07:01:11;;;;;;;5.47;1.90;;;4.10;97.60;;;;;;6143031;23;20223;-93
2023/03/27 07:03:38;;;;;;;11.97;1.80;;;4.20;97.80;;;;;;6151938;23;20228;-92
2023/03/27 07:06:16;;;;;;;7.83;1.77;;;4.10;97.70;;;;;;6152135;23;20236;-93
2023/03/27 07:08:52;;;;;;;5.10;1.63;;;4.30;98.60;;;;;;6146224;23;20159;-93
2023/03/27 07:11:24;;;;;;;5.93;1.50;;;4.20;97.70;;;;;;6170761;23;20143;-92
2023/03/27 07:13:56;;;;;;;4.63;1.67;;;4.40;97.90;;;;;;6143799;23;20155;-92
2023/03/27 07:16:28;;;;;;;3.97;1.50;;;4.40;98.10;;;;;;6138921;23;20179;-92
2023/03/27 07:19:05;;;;;;;7.30;1.97;;;4.40;97.40;;;;;;6147247;23;20206;-92
2023/03/27 07:21:37;;;;;;;7.40;2.13;;;4.40;97.70;;;;;;6143828;23;20156;-93
2023/03/27 07:24:13;;;;;;;5.93;1.50;;;4.50;98.20;;;;;;6170393;23;20156;-93
2023/03/27 07:26:57;;;;;;;4.77;1.80;;;4.40;98.00;;;;;;6172437;23;20190;-92
2023/03/27 07:30:06;;;;;;;6.97;1.63;;;4.40;97.20;;;;;;6149389;23;20152;-92
2023/03/27 07:32:43;;;;;;;6.03;1.70;;;4.40;96.90;;;;;;6130545;23;20190;-91
2023/03/27 07:35:13;;;;;;;5.67;1.57;;;4.40;97.70;;;;;;6144049;23;20155;-93
2023/03/27 07:37:39;;;;;;;6.47;1.73;;;4.40;97.80;;;;;;6143328;23;20163;-93
2023/03/27 07:40:06;;;;;;;7.10;2.10;;;4.70;98.70;;;;;;6146252;23;20183;-93
2023/03/27 07:42:33;;;;;;;6.40;1.80;;;4.90;98.00;;;;;;6147565;23;20167;-93
2023/03/27 07:45:00;;;;;;;6.73;2.00;;;5.00;97.70;;;;;;6148117;23;20175;-93
2023/03/27 07:47:27;;;;;;;9.38;1.60;;;5.10;97.60;;;;;;6143640;23;20194;-93
2023/03/27 07:49:53;;;;;;;7.13;2.07;;;5.30;95.90;;;;;;6171385;23;20147;-93
2023/03/27 07:52:21;;;;;;;7.80;1.40;;;5.40;96.40;;;;;;6141280;23;20188;-93
2023/03/27 07:54:47;;;;;;;5.77;1.73;;;5.10;95.90;;;;;;6168840;23;20233;-92
2023/03/27 07:57:17;;;;;;;9.03;2.10;;;5.00;96.80;;;;;;6141905;23;20179;-91
2023/03/27 07:59:44;;;;;;;7.03;1.90;;;4.90;96.90;;;;;;6140315;23;20159;-93
2023/03/27 08:02:36;;;;;;;;;;;;;;;;;;;;;
2023/03/27 08:05:14;;;;;;;10.63;2.13;;;5.40;97.30;;;;;;6162089;23;20179;-92
2023/03/27 08:07:41;;;;;;;27.00;4.13;;;6.00;97.10;;;;;;6135411;23;20191;-93
2023/03/27 08:10:14;;;;;;;5.03;1.63;;;6.00;95.90;;;;;;6160462;23;20242;-93
2023/03/27 08:12:41;;;;;;;11.13;2.28;;;6.00;96.40;;;;;;6135838;23;20172;-92
2023/03/27 08:15:08;;;;;;;13.82;2.58;;;5.60;96.00;;;;;;6140269;23;20179;-93
2023/03/27 08:18:21;;;;;;;5.47;1.70;;;5.50;96.30;;;;;;6136959;23;20203;-92
2023/03/27 08:20:59;;;;;;;5.27;1.70;;;5.70;96.40;;;;;;6108802;23;20160;-93
2023/03/27 08:23:46;;;;;;;29.73;6.60;;;5.90;96.00;;;;;;6139264;23;20164;-92
2023/03/27 08:26:22;;;;;;;75.60;15.27;;;6.00;96.10;;;;;;6158193;23;20212;-93
2023/03/27 09:29:25;;;;;;;6.57;1.90;;;7.00;92.70;;;;;;6153262;23;20222;-94
2023/03/27 09:31:55;;;;;;;4.18;1.75;;;6.90;92.40;;;;;;6143344;23;20215;-94
2023/03/27 09:34:27;;;;;;;7.90;1.98;;;6.60;91.50;;;;;;6135842;23;20208;-94
2023/03/27 09:36:54;;;;;;;10.77;2.15;;;6.70;92.20;;;;;;6156654;23;20258;-94
2023/03/27 09:39:32;;;;;;;4.97;1.98;;;6.90;93.40;;;;;;6167876;23;20155;-93
2023/03/27 09:42:08;;;;;;;4.07;1.85;;;6.70;92.30;;;;;;6168763;23;20159;-94
2023/03/27 09:44:38;;;;;;;4.90;1.80;;;6.70;92.80;;;;;;6172072;23;20174;-94
2023/03/27 09:47:18;;;;;;;7.13;2.22;;;6.80;92.60;;;;;;6169776;23;20182;-94
2023/03/27 09:49:55;;;;;;;7.00;1.38;;;6.60;94.10;;;;;;6171577;23;20178;-94
2023/03/27 09:52:39;;;;;;;6.80;1.70;;;6.50;93.90;;;;;;6168090;23;20167;-94
2023/03/27 09:55:49;;;;;;;14.05;2.67;;;6.60;92.90;;;;;;6169324;23;20162;-94
2023/03/27 09:58:27;;;;;;;7.10;2.17;;;6.70;94.30;;;;;;6167338;23;20155;-94
2023/03/27 10:01:15;;;;;;;7.82;1.60;;;6.60;92.90;;;;;;6168769;23;20177;-94
2023/03/27 10:03:44;;;;;;;8.00;1.85;;;6.60;94.60;;;;;;6198040;23;20143;-94
2023/03/27 10:06:14;;;;;;;4.03;1.60;;;6.30;93.60;;;;;;6171657;23;20185;-93
2023/03/27 10:08:45;;;;;;;3.67;1.33;;;6.20;96.00;;;;;;6169102;23;20174;-94
2023/03/27 10:11:16;;;;;;;4.82;1.30;;;6.10;97.20;;;;;;6168240;23;20158;-94
2023/03/27 10:13:50;;;;;;;8.35;1.50;;;6.20;98.70;;;;;;6169564;23;20155;-94
2023/03/27 10:16:18;;;;;;;5.93;2.20;;;6.40;98.40;;;;;;6171436;23;20636;-93
2023/03/27 10:18:54;;;;;;;4.25;1.30;;;6.70;98.40;;;;;;6174025;23;20138;-92
2023/03/27 10:21:43;;;;;;;6.80;1.83;;;6.90;97.90;;;;;;6176019;23;20211;-94
2023/03/27 10:24:40;;;;;;;4.95;1.75;;;7.10;98.50;;;;;;6174967;23;20143;-94
2023/03/27 10:27:10;;;;;;;8.07;3.08;;;7.20;97.60;;;;;;6195480;23;20201;-94
2023/03/27 10:29:36;;;;;;;7.35;2.25;;;7.60;97.20;;;;;;6173430;23;20171;-94
2023/03/27 10:32:04;;;;;;;6.70;1.88;;;7.80;96.50;;;;;;6172172;23;20213;-94
2023/03/27 10:34:36;;;;;;;4.65;1.90;;;7.90;95.20;;;;;;6171915;23;20227;-94
2023/03/27 10:37:18;;;;;;;6.55;1.70;;;7.30;94.70;;;;;;6171016;23;20177;-94
2023/03/27 10:39:44;;;;;;;6.53;1.15;;;6.70;93.50;;;;;;6198226;23;20163;-93
2023/03/27 10:42:13;;;;;;;8.43;1.77;;;6.20;92.40;;;;;;6196490;23;20238;-94
2023/03/27 10:44:41;;;;;;;5.07;1.60;;;5.90;93.40;;;;;;6167060;23;20163;-94
2023/03/27 10:47:32;;;;;;;3.47;1.40;;;5.60;94.10;;;;;;6166953;23;20190;-94
2023/03/27 10:50:18;;;;;;;4.32;1.35;;;5.60;93.70;;;;;;6169424;23;20158;-94
2023/03/27 10:53:11;;;;;;;6.25;1.67;;;6.00;94.10;;;;;;6167413;23;20189;-93
2023/03/27 10:55:50;;;;;;;6.63;1.80;;;6.10;92.60;;;;;;6166924;23;20175;-94
2023/03/27 10:58:31;;;;;;;3.22;1.25;;;6.30;93.10;;;;;;6192105;23;20178;-94
2023/03/27 11:01:04;;;;;;;7.25;2.25;;;6.50;93.70;;;;;;6165770;23;20159;-93
2023/03/27 11:03:42;;;;;;;4.35;1.90;;;6.50;91.50;;;;;;6167815;23;20151;-94
2023/03/27 11:06:14;;;;;;;5.78;1.55;;;6.90;92.40;;;;;;6169841;23;20179;-95
2023/03/27 11:08:42;;;;;;;5.78;1.77;;;7.30;93.20;;;;;;6170487;23;20182;-94
2023/03/27 11:11:28;;;;;;;6.95;1.95;;;7.40;92.10;;;;;;6166211;23;20166;-94
2023/03/27 11:14:00;;;;;;;4.03;1.58;;;7.80;92.00;;;;;;6164554;23;20225;-94
2023/03/27 11:16:33;;;;;;;6.97;2.00;;;8.10;91.10;;;;;;6166553;23;20179;-93
2023/03/27 11:19:27;;;;;;;6.32;1.55;;;8.20;90.60;;;;;;6192698;23;20143;-94
2023/03/27 11:21:57;;;;;;;14.48;2.00;;;7.70;91.40;;;;;;6154700;23;20159;-94
2023/03/27 11:24:38;;;;;;;5.28;1.52;;;7.60;93.10;;;;;;6165115;23;20147;-94
2023/03/27 11:27:04;;;;;;;7.20;1.95;;;6.90;93.50;;;;;;6167955;23;20179;-93
2023/03/27 11:29:51;;;;;;;10.60;1.92;;;6.40;95.30;;;;;;6168968;23;20263;-93
2023/03/27 11:32:51;;;;;;;3.80;1.52;;;6.20;97.00;;;;;;6166491;23;20218;-93
2023/03/27 11:35:27;;;;;;;3.95;2.38;;;5.50;99.10;;;;;;6165907;23;20150;-94
2023/03/27 11:38:00;;;;;;;6.20;1.90;;;5.20;99.50;;;;;;6163567;23;20159;-93
2023/03/27 11:40:51;;;;;;;4.38;3.33;;;5.20;99.90;;;;;;6163037;23;20186;-94
2023/03/27 11:43:18;;;;;;;6.18;2.75;;;5.40;99.90;;;;;;6163649;23;20230;-93
2023/03/27 11:46:42;;;;;;;2.83;1.88;;;5.70;99.90;;;;;;6166391;23;20182;-93
2023/03/27 11:50:14;;;;;;;4.40;1.70;;;6.10;99.90;;;;;;6136562;23;20179;-94
2023/03/27 11:56:15;;;;;;;3.55;1.40;;;6.80;97.40;;;;;;5957774;24;20184;-93
2023/03/27 11:59:47;;;;;;;4.60;1.70;;;7.00;93.80;;;;;;6012037;23;20159;-93
2023/03/27 12:02:33;;;;;;;4.20;1.55;;;7.20;94.10;;;;;;6004981;23;20166;-93
2023/03/27 12:05:43;;;;;;;3.42;1.50;;;7.40;93.00;;;;;;5991268;23;20163;-93
2023/03/27 12:08:28;;;;;;;4.03;1.40;;;7.40;91.80;;;;;;5995722;23;20162;-93
2023/03/27 12:10:57;;;;;;;2.45;1.33;;;7.50;91.40;;;;;;6138736;23;20155;-94
2023/03/27 12:14:14;;;;;;;2.47;1.30;;;7.40;90.10;;;;;;6140254;23;20187;-94
2023/03/27 12:17:06;;;;;;;3.33;1.70;;;7.50;90.60;;;;;;6026726;23;20672;-95
2023/03/27 12:20:09;;;;;;;2.95;1.45;;;7.70;90.80;;;;;;5947464;24;20172;-93
2023/03/27 12:22:46;;;;;;;2.92;1.30;;;7.70;89.50;;;;;;6153829;23;20147;-94
2023/03/27 12:25:30;;;;;;;3.13;1.38;;;7.80;87.70;;;;;;6143287;23;20142;-94
2023/03/27 12:28:30;;;;;;;6.22;1.58;;;7.80;90.40;;;;;;6142884;23;20152;-94
2023/03/27 12:31:18;;;;;;;3.88;1.67;;;7.70;89.40;;;;;;6139333;23;20183;-94
2023/03/27 12:34:02;;;;;;;2.30;1.35;;;7.70;87.50;;;;;;6146691;23;20170;-93
2023/03/27 12:36:36;;;;;;;2.35;1.35;;;7.80;87.60;;;;;;6139357;23;20183;-94
2023/03/27 12:39:16;;;;;;;4.82;1.30;;;7.70;83.50;;;;;;6142839;23;20155;-93
2023/03/27 12:41:44;;;;;;;3.50;1.15;;;7.70;87.10;;;;;;6140802;23;20147;-94
2023/03/27 12:44:13;;;;;;;7.30;1.63;;;7.80;87.60;;;;;;6141046;23;20155;-94
2023/03/27 12:46:41;;;;;;;25.30;4.57;;;7.80;87.70;;;;;;6144059;23;20180;-94
2023/03/27 12:49:09;;;;;;;3.72;1.52;;;7.90;88.80;;;;;;6144989;23;20148;-94
2023/03/27 12:51:46;;;;;;;7.85;1.77;;;7.80;89.20;;;;;;6144058;23;20211;-94
2023/03/27 12:54:41;;;;;;;4.00;1.70;;;7.70;89.20;;;;;;6142771;23;20144;-94
2023/03/27 12:57:20;;;;;;;3.67;1.25;;;7.60;88.70;;;;;;6139565;23;20180;-93
2023/03/27 12:59:58;;;;;;;2.47;1.60;;;7.70;89.70;;;;;;6139728;23;20155;-93
2023/03/27 13:03:04;;;;;;;4.20;1.33;;;7.60;90.90;;;;;;6134639;23;20597;-93
2023/03/27 13:05:54;;;;;;;2.45;1.30;;;7.50;93.10;;;;;;6132137;23;20166;-93
2023/03/27 13:09:12;;;;;;;5.30;1.90;;;7.50;94.00;;;;;;6133683;23;20194;-93
2023/03/27 13:15:28;;;;;;;6.47;2.00;;;7.90;94.10;;;;;;5958079;24;20160;-93
2023/03/27 13:21:54;;;;;;;26.20;20.02;;;7.60;91.30;;;;;;5957741;24;20192;-93
2023/03/27 13:24:45;;;;;;;6.50;1.80;;;7.20;92.60;;;;;;5957916;24;20160;-93
2023/03/27 13:27:26;;;;;;;4.97;1.67;;;7.60;93.80;;;;;;6094882;23;20251;-77
2023/03/27 13:29:52;;;;;;;12.48;2.22;;;7.70;94.00;;;;;;6097627;23;20157;-77
2023/03/27 13:32:31;;;;;;;30.25;4.40;;;7.20;95.00;;;;;;6097606;23;20672;-77
2023/03/27 13:35:20;;;;;;;6.05;1.83;;;6.80;96.30;;;;;;6096510;23;20193;-77
2023/03/27 13:37:56;;;;;;;15.52;2.03;;;6.60;97.00;;;;;;6096462;23;20188;-77
2023/03/27 13:40:48;;;;;;;3.80;2.20;;;6.40;97.00;;;;;;6097212;23;20153;-77
2023/03/27 13:43:20;;;;;;;3.47;1.75;;;6.50;97.40;;;;;;6097150;23;20160;-77
2023/03/27 13:46:06;;;;;;;3.78;1.60;;;6.60;96.30;;;;;;6096473;23;20272;-78
2023/03/27 13:48:41;;;;;;;2.45;1.88;;;6.60;95.60;;;;;;6095807;23;20156;-78
2023/03/27 13:51:44;;;;;;;2.45;1.50;;;6.50;94.00;;;;;;6097109;23;20481;-78
2023/03/27 13:57:50;;;;;;;5.70;1.40;;;6.50;94.70;;;;;;6097444;23;20180;-77
2023/03/27 14:00:51;;;;;;;2.58;1.55;;;6.50;94.10;;;;;;6096568;23;20228;-78
2023/03/27 14:03:55;;;;;;;5.78;1.70;;;6.60;94.70;;;;;;6096052;23;20594;-78
2023/03/27 14:10:22;;;;;;;7.53;1.70;;;6.80;93.30;;;;;;6097479;23;20144;-78
2023/03/27 14:13:10;;;;;;;7.22;1.30;;;6.90;92.80;;;;;;6096655;23;20207;-78
2023/03/27 14:15:59;;;;;;;6.55;1.23;;;7.00;92.90;;;;;;6097755;23;20145;-78
2023/03/27 14:22:00;;;;;;;2.67;1.35;;;7.00;91.80;;;;;;6097385;23;20172;-78
2023/03/27 14:24:37;;;;;;;2.67;1.10;;;7.30;90.40;;;;;;6095926;23;20191;-78
2023/03/27 14:30:29;;;;;;;3.95;1.25;;;7.60;89.30;;;;;;6097472;23;20172;-77
2023/03/27 14:33:33;;;;;;;3.72;0.95;;;7.70;87.50;;;;;;6095703;23;20273;-77
2023/03/27 14:36:04;;;;;;;7.80;4.85;;;7.70;84.30;;;;;;6097634;23;20175;-77
2023/03/27 14:38:35;;;;;;;18.42;9.75;;;7.70;85.90;;;;;;6097451;23;20168;-77
2023/03/27 14:41:04;;;;;;;25.33;13.18;;;7.80;88.60;;;;;;6097339;23;20148;-77
2023/03/27 14:43:30;;;;;;;16.05;7.70;;;7.70;84.90;;;;;;6095788;23;20239;-77
2023/03/27 14:46:04;;;;;;;26.25;13.50;;;7.50;83.90;;;;;;6096007;23;20184;-77
2023/03/27 14:48:40;;;;;;;9.80;4.70;;;7.30;86.80;;;;;;6096909;23;20153;-77
2023/03/27 14:51:09;;;;;;;12.90;6.38;;;7.20;84.10;;;;;;6095798;23;20148;-77
2023/03/27 14:53:42;;;;;;;6.95;3.72;;;7.20;85.70;;;;;;6097487;23;20208;-77
2023/03/27 14:56:20;;;;;;;4.57;3.20;;;7.20;88.10;;;;;;6096177;23;20176;-77
2023/03/27 14:58:46;;;;;;;4.75;1.80;;;7.10;87.50;;;;;;6097365;23;20160;-77
2023/03/27 15:01:28;;;;;;;3.72;2.72;;;7.00;88.80;;;;;;6098102;23;20153;-77
2023/03/27 15:03:54;;;;;;;5.07;2.05;;;7.10;90.90;;;;;;6098648;23;20149;-77
2023/03/27 15:06:28;;;;;;;1.58;1.35;;;7.00;92.30;;;;;;6098141;23;20187;-77
2023/03/27 15:09:04;;;;;;;1.50;1.20;;;7.00;92.40;;;;;;6099123;23;20133;-77
2023/03/27 15:11:38;;;;;;;7.85;1.92;;;6.90;92.60;;;;;;6098821;23;20156;-77
2023/03/27 15:14:14;;;;;;;9.55;4.10;;;6.90;93.10;;;;;;6097891;23;20175;-77
2023/03/27 15:16:40;;;;;;;3.75;3.38;;;6.70;92.70;;;;;;6097588;23;20181;-77
2023/03/27 15:19:11;;;;;;;7.45;1.92;;;6.60;92.60;;;;;;6098230;23;20164;-77
2023/03/27 15:21:53;;;;;;;120.25;10.15;;;6.50;93.40;;;;;;6099530;23;20571;-77
2023/03/27 15:24:38;;;;;;;3.97;2.92;;;6.50;94.10;;;;;;6098784;23;20153;-77
2023/03/27 15:27:05;;;;;;;3.42;1.80;;;6.60;94.10;;;;;;6097698;23;20196;-77
2023/03/27 15:29:39;;;;;;;6.28;1.60;;;6.60;93.60;;;;;;6098064;23;20172;-77
2023/03/27 15:32:13;;;;;;;61.92;4.55;;;6.60;92.60;;;;;;6098394;23;20181;-78
2023/03/27 15:35:02;;;;;;;4.40;1.50;;;6.60;93.00;;;;;;6098128;23;20262;-77
2023/03/27 15:37:30;;;;;;;2.90;1.10;;;6.70;92.40;;;;;;6098087;23;20173;-77
2023/03/27 15:40:23;;;;;;;3.50;1.10;;;7.00;90.60;;;;;;6098993;23;20189;-77
2023/03/27 15:42:59;;;;;;;1.15;0.93;;;7.20;86.30;;;;;;6099770;23;20153;-77
2023/03/27 15:45:39;;;;;;;4.80;1.48;;;7.30;83.40;;;;;;6097953;23;20145;-77
2023/03/27 15:48:22;;;;;;;1.95;1.30;;;7.50;82.70;;;;;;6098965;23;20187;-76
2023/03/27 15:51:11;;;;;;;1.10;1.10;;;7.50;83.20;;;;;;6097859;23;20200;-76
2023/03/27 15:53:46;;;;;;;5.50;1.20;;;7.50;81.80;;;;;;6098930;23;20268;-77
2023/03/27 15:59:24;;;;;;;1.35;1.10;;;7.30;81.80;;;;;;6099911;23;20141;-77
2023/03/27 16:02:15;;;;;;;8.73;4.47;;;7.20;87.20;;;;;;6099027;23;20167;-77
2023/03/27 16:04:55;;;;;;;1.60;1.50;;;6.90;90.40;;;;;;6098201;23;20228;-77
2023/03/27 16:07:42;;;;;;;13.18;3.80;;;6.70;91.90;;;;;;6097210;23;20188;-77
2023/03/27 16:10:09;;;;;;;3.17;1.70;;;6.60;93.10;;;;;;6096922;23;20149;-77
2023/03/27 16:12:55;;;;;;;4.82;2.58;;;6.50;93.50;;;;;;6096719;23;20270;-77
2023/03/27 16:15:35;;;;;;;56.90;6.28;;;6.20;94.60;;;;;;6096326;23;20203;-77
2023/03/27 16:18:30;;;;;;;6.97;1.40;;;6.30;94.50;;;;;;6098519;23;20181;-77
2023/03/27 16:21:07;;;;;;;5.35;1.80;;;6.30;94.80;;;;;;6090184;23;20157;-77
2023/03/27 16:23:34;;;;;;;3.75;1.30;;;6.30;94.60;;;;;;6097160;23;20197;-77
2023/03/27 16:26:15;;;;;;;32.65;3.47;;;6.20;94.20;;;;;;6096983;23;20283;-77
2023/03/27 16:29:00;;;;;;;11.02;2.00;;;6.10;94.20;;;;;;6098465;23;20269;-77
2023/03/27 16:31:28;;;;;;;4.43;2.40;;;6.20;94.50;;;;;;6096777;23;20164;-76
2023/03/27 16:33:57;;;;;;;4.57;2.88;;;6.10;95.00;;;;;;6096891;23;20153;-77
2023/03/27 16:36:31;;;;;;;8.07;2.17;;;6.20;95.10;;;;;;6098121;23;20273;-77
2023/03/27 16:38:56;;;;;;;1.90;1.45;;;6.20;94.40;;;;;;6096781;23;20156;-77
2023/03/27 16:41:49;;;;;;;2.55;1.00;;;6.10;94.80;;;;;;6098280;23;20646;-76
2023/03/27 16:44:15;;;;;;;2.70;1.20;;;6.10;95.00;;;;;;6097668;23;20154;-76
2023/03/27 16:46:40;;;;;;;5.82;1.50;;;6.00;95.30;;;;;;6098156;23;20192;-76
2023/03/27 16:49:06;;;;;;;3.10;1.30;;;6.00;95.40;;;;;;6096677;23;20167;-77
2023/03/27 16:51:44;;;;;;;3.20;1.38;;;5.80;94.90;;;;;;6098209;23;20482;-77
2023/03/27 16:54:09;;;;;;;5.38;1.38;;;5.60;96.70;;;;;;6096873;23;20180;-78
2023/03/27 16:56:35;;;;;;;2.08;1.13;;;5.30;98.40;;;;;;6098216;23;20220;-76
2023/03/27 16:59:01;;;;;;;1.63;1.30;;;4.60;99.90;;;;;;6096832;23;20160;-76
2023/03/27 17:01:27;;;;;;;2.60;1.33;;;4.30;99.90;;;;;;6098018;23;20149;-76
2023/03/27 17:03:52;;;;;;;2.63;1.50;;;4.10;99.90;;;;;;6096437;23;20161;-76
2023/03/27 17:06:20;;;;;;;3.33;1.50;;;4.00;99.90;;;;;;6096640;23;20188;-78
2023/03/27 17:08:48;;;;;;;4.13;2.23;;;4.10;99.90;;;;;;6096918;23;20234;-77
2023/03/27 17:11:17;;;;;;;3.07;1.50;;;4.10;99.90;;;;;;6096974;23;20167;-77
2023/03/27 17:13:43;;;;;;;2.33;1.47;;;3.90;99.90;;;;;;6097099;23;20200;-77
2023/03/27 17:16:29;;;;;;;2.93;1.23;;;3.80;99.90;;;;;;6097438;23;20622;-78
2023/03/27 17:19:02;;;;;;;2.20;1.27;;;3.60;99.90;;;;;;6098365;23;20149;-78
2023/03/27 17:21:44;;;;;;;3.37;1.50;;;3.40;99.90;;;;;;6097880;23;20152;-77
2023/03/27 17:24:10;;;;;;;2.10;1.30;;;3.40;99.90;;;;;;6098316;23;20137;-78
2023/03/27 17:26:37;;;;;;;1.77;1.20;;;3.30;99.90;;;;;;6129073;23;20245;-78
2023/03/27 17:29:05;;;;;;;1.27;1.13;;;3.30;99.90;;;;;;6131329;23;20175;-78
2023/03/27 17:31:40;;;;;;;1.53;1.10;;;3.30;99.90;;;;;;6130958;23;20601;-78
2023/03/27 17:34:06;;;;;;;1.40;1.30;;;3.30;99.90;;;;;;6132112;23;20147;-78
2023/03/27 17:36:32;;;;;;;2.00;1.20;;;3.30;99.90;;;;;;6130781;23;20176;-78
2023/03/27 17:39:00;;;;;;;3.53;1.20;;;3.30;99.90;;;;;;6157558;23;20163;-78
2023/03/27 17:41:27;;;;;;;2.03;1.20;;;3.30;99.90;;;;;;6131953;23;20160;-78
2023/03/27 17:50:37;;;;;;;1.67;1.20;;;3.10;99.90;;;;;;6156439;23;20162;-78
2023/03/27 17:53:10;;;;;;;2.23;1.03;;;3.10;99.90;;;;;;6129785;23;20194;-78
2023/03/27 17:55:58;;;;;;;1.47;1.20;;;3.10;99.90;;;;;;6130004;23;20162;-78
2023/03/27 17:58:25;;;;;;;1.90;1.33;;;3.10;99.90;;;;;;6130613;23;20714;-78
2023/03/27 18:01:18;;;;;;;1.73;1.10;;;3.00;99.90;;;;;;6156177;23;20235;-78
2023/03/27 18:03:59;;;;;;;2.27;1.17;;;3.00;99.90;;;;;;6131400;23;20152;-78
2023/03/27 18:06:29;;;;;;;1.10;1.00;;;3.00;99.90;;;;;;6131334;23;20175;-78
2023/03/27 18:08:55;;;;;;;3.83;1.23;;;2.90;99.90;;;;;;6132106;23;20154;-78
2023/03/27 18:11:20;;;;;;;4.70;3.80;;;2.90;99.90;;;;;;6131775;23;20238;-78
2023/03/27 18:13:51;;;;;;;2.37;1.40;;;2.80;99.90;;;;;;6130976;23;20186;-78
2023/03/27 18:16:18;;;;;;;2.57;2.00;;;2.80;99.90;;;;;;6157317;23;20168;-84
2023/03/27 18:18:45;;;;;;;1.50;1.40;;;2.80;99.90;;;;;;6156845;23;20492;-78
2023/03/27 18:24:33;;;;;;;1.77;1.60;;;2.70;99.90;;;;;;6156559;23;20146;-78
2023/03/27 18:26:58;;;;;;;2.67;1.50;;;2.80;99.90;;;;;;6130321;23;20278;-78
2023/03/27 18:29:29;;;;;;;1.60;1.50;;;2.70;99.90;;;;;;6130490;23;20156;-78
2023/03/27 18:31:54;;;;;;;3.47;1.87;;;2.70;99.90;;;;;;6156766;23;20195;-78
2023/03/27 18:34:20;;;;;;;2.50;2.27;;;2.70;99.90;;;;;;6157039;23;20206;-78
2023/03/27 18:37:39;;;;;;;10.70;6.40;;;2.70;99.90;;;;;;6129354;23;20647;-78
2023/03/27 18:40:08;;;;;;;8.00;5.07;;;2.60;99.90;;;;;;6156367;23;20218;-77
2023/03/27 18:42:35;;;;;;;5.77;3.90;;;2.60;99.90;;;;;;6131197;23;20152;-77
2023/03/27 18:45:07;;;;;;;4.03;3.00;;;2.50;99.90;;;;;;6130744;23;20168;-77
2023/03/27 18:47:34;;;;;;;5.67;2.90;;;2.50;99.90;;;;;;6130389;23;20183;-77
2023/03/27 18:50:13;;;;;;;5.83;3.63;;;2.30;99.90;;;;;;6130924;23;20163;-77
2023/03/27 18:52:40;;;;;;;3.60;3.17;;;2.30;99.90;;;;;;6129164;23;20241;-77
2023/03/27 18:55:07;;;;;;;2.80;1.87;;;2.30;99.90;;;;;;6130097;23;20151;-78
2023/03/27 18:57:45;;;;;;;2.20;1.90;;;2.20;99.90;;;;;;6130072;23;20211;-77
2023/03/27 19:00:17;;;;;;;1.70;1.60;;;2.30;99.90;;;;;;6130130;23;20195;-78
2023/03/27 19:02:43;;;;;;;3.40;3.03;;;2.30;99.90;;;;;;6130058;23;20164;-77
2023/03/27 19:09:01;;;;;;;4.20;2.47;;;2.40;99.90;;;;;;6155701;23;20143;-78
2023/03/27 19:12:21;;;;;;;1.30;1.20;;;2.40;99.90;;;;;;6129497;23;20163;-78
2023/03/27 19:14:54;;;;;;;2.40;2.20;;;2.70;99.90;;;;;;6130245;23;20156;-77
2023/03/27 19:17:45;;;;;;;3.00;1.50;;;2.80;99.90;;;;;;6129258;23;20187;-77
2023/03/27 19:21:00;;;;;;;3.60;1.60;;;2.90;99.90;;;;;;6129559;23;20171;-78
2023/03/27 19:23:26;;;;;;;1.43;1.30;;;2.80;99.90;;;;;;6131030;23;20144;-78
2023/03/27 19:25:53;;;;;;;1.57;1.47;;;2.70;99.90;;;;;;6129439;23;20274;-78
2023/03/27 19:28:19;;;;;;;1.80;1.40;;;2.60;99.90;;;;;;6130008;23;20619;-77
2023/03/27 19:30:55;;;;;;;3.00;1.77;;;2.60;99.90;;;;;;6130009;23;20179;-77
2023/03/27 19:33:20;;;;;;;2.13;1.20;;;2.50;99.90;;;;;;6130706;23;20207;-77
2023/03/27 19:35:50;;;;;;;1.53;1.20;;;2.40;99.90;;;;;;6129679;23;20190;-78
2023/03/27 19:38:20;;;;;;;1.83;1.10;;;2.40;99.90;;;;;;6130038;23;20160;-78
2023/03/27 19:40:46;;;;;;;2.47;1.30;;;2.30;99.90;;;;;;6129783;23;20156;-78
2023/03/27 19:43:14;;;;;;;2.73;1.40;;;2.20;99.90;;;;;;6129955;23;20167;-78
2023/03/27 19:46:10;;;;;;;2.73;1.50;;;2.20;99.90;;;;;;6130193;23;20160;-80
2023/03/27 19:48:42;;;;;;;1.70;1.60;;;2.10;99.90;;;;;;6130827;23;20159;-77
2023/03/27 19:51:25;;;;;;;6.57;2.57;;;2.10;99.90;;;;;;6131424;23;20151;-77
2023/03/27 19:53:51;;;;;;;2.93;2.00;;;2.00;99.90;;;;;;6131144;23;20264;-77
2023/03/27 19:56:17;;;;;;;3.27;1.73;;;1.90;99.90;;;;;;6131393;23;20183;-78
2023/03/27 19:58:43;;;;;;;5.70;1.93;;;1.90;99.90;;;;;;6131286;23;20160;-77
2023/03/27 20:01:08;;;;;;;3.90;1.80;;;1.80;99.90;;;;;;6130748;23;20164;-77
2023/03/27 20:03:36;;;;;;;3.50;1.50;;;1.90;99.90;;;;;;6131302;23;20601;-77
2023/03/27 20:06:02;;;;;;;1.77;1.43;;;1.80;99.90;;;;;;6130075;23;20187;-77
2023/03/27 20:08:29;;;;;;;1.80;1.40;;;1.70;99.90;;;;;;6131459;23;20159;-78
2023/03/27 20:10:55;;;;;;;4.03;2.30;;;1.70;99.90;;;;;;6130734;23;20170;-77
2023/03/27 20:13:20;;;;;;;2.30;1.63;;;1.70;99.90;;;;;;6130846;23;20183;-78
2023/03/27 20:15:48;;;;;;;82.80;32.57;;;1.70;99.90;;;;;;6131093;23;20266;-78
2023/03/27 20:18:16;;;;;;;25.13;10.93;;;1.60;99.90;;;;;;6131362;23;20155;-78
2023/03/27 20:24:01;;;;;;;24.70;11.73;;;1.60;99.90;;;;;;6156935;23;20144;-78
2023/03/27 20:26:28;;;;;;;9.33;4.40;;;1.70;99.90;;;;;;6156221;23;20266;-78
2023/03/27 20:28:54;;;;;;;9.77;5.57;;;1.60;99.90;;;;;;6130979;23;20167;-78
2023/03/27 20:31:20;;;;;;;7.77;4.33;;;1.60;99.90;;;;;;6131114;23;20163;-78
2023/03/27 20:33:48;;;;;;;6.10;3.20;;;1.60;99.90;;;;;;6133778;23;20595;-78
2023/03/27 20:36:15;;;;;;;6.23;3.20;;;1.60;99.90;;;;;;6159351;23;20194;-78
2023/03/27 20:39:06;;;;;;;4.13;2.77;;;1.60;99.90;;;;;;6133997;23;20278;-78
2023/03/27 20:41:37;;;;;;;2.70;2.50;;;1.60;99.90;;;;;;6132384;23;20159;-78
2023/03/27 20:44:34;;;;;;;3.87;2.50;;;1.50;99.90;;;;;;6130767;23;20195;-78
2023/03/27 20:46:50;;;;;;;2.20;2.00;;;1.60;99.90;;;;;;6156031;23;20660;-78
2023/03/27 20:49:23;;;;;;;4.37;2.30;;;1.40;99.90;;;;;;6130970;23;20183;-78
2023/03/27 20:51:51;;;;;;;3.20;2.00;;;1.40;99.90;;;;;;6131076;23;20208;-78
2023/03/27 20:54:21;;;;;;;5.50;3.30;;;1.50;99.90;;;;;;6130140;23;20585;-78
2023/03/27 20:56:46;;;;;;;7.17;4.27;;;1.50;99.90;;;;;;6130439;23;20180;-78
2023/03/27 20:59:12;;;;;;;12.93;6.83;;;1.60;99.90;;;;;;6130398;23;20159;-78
2023/03/27 21:01:44;;;;;;;10.10;5.97;;;1.60;99.90;;;;;;6131080;23;20155;-77
2023/03/27 21:04:11;;;;;;;11.23;6.40;;;1.70;99.90;;;;;;6156729;23;20186;-77
2023/03/27 21:06:38;;;;;;;7.50;5.20;;;1.70;99.90;;;;;;6130604;23;20187;-77